Time;durP1;ratioP1;P1;durP2;ratioP2;P2;SDS_P1;SDS_P2;PMS_P1;PMS_P2;Temp;Humidity;BMP_temperature;BMP_pressure;BME280_temperature;BME280_humidity;BME280_pressure;Samples;Min_cycle;Max_cycle;Signal;HPM_P1;HPM_P2
2022/01/22 00:01:55;;;;;;;102.82;49.28;;;;;;;;;;4976572;28;20065;-79
2022/01/22 00:04:22;;;;;;;100.57;48.78;;;;;;;;;;4976643;28;20360;-80
2022/01/22 00:06:51;;;;;;;113.45;51.63;;;;;;;;;;4978986;28;20195;-79
2022/01/22 00:09:24;;;;;;;105.05;49.95;;;;;;;;;;5057145;28;20021;-80
2022/01/22 00:11:54;;;;;;;104.22;49.30;;;;;;;;;;5057285;28;20021;-80
2022/01/22 00:14:24;;;;;;;99.97;49.83;;;;;;;;;;5057073;28;20052;-80
2022/01/22 00:16:57;;;;;;;114.15;49.80;;;;;;;;;;5039263;28;20040;-81
2022/01/22 00:19:25;;;;;;;95.63;48.45;;;;;;;;;;5056966;28;20028;-80
2022/01/22 00:21:53;;;;;;;90.22;46.13;;;;;;;;;;5015085;28;20034;-80
2022/01/22 00:24:19;;;;;;;83.93;41.38;;;;;;;;;;5014984;28;20044;-80
2022/01/22 00:26:47;;;;;;;84.43;41.03;;;;;;;;;;5015078;28;20104;-80
2022/01/22 00:29:16;;;;;;;81.38;41.42;;;;;;;;;;5015279;28;20025;-80
2022/01/22 00:31:44;;;;;;;77.32;37.90;;;;;;;;;;5015070;28;20041;-80
2022/01/22 00:34:12;;;;;;;87.15;42.35;;;;;;;;;;5015173;28;20631;-80
2022/01/22 00:36:39;;;;;;;75.53;34.80;;;;;;;;;;5015021;28;20113;-80
2022/01/22 00:39:08;;;;;;;68.10;30.30;;;;;;;;;;5014969;28;20088;-81
2022/01/22 00:41:36;;;;;;;63.63;27.70;;;;;;;;;;5014854;28;20048;-81
2022/01/22 00:44:06;;;;;;;57.42;28.70;;;;;;;;;;5014950;28;20034;-81
2022/01/22 00:46:34;;;;;;;65.70;29.42;;;;;;;;;;5014791;28;20025;-80
2022/01/22 00:49:02;;;;;;;57.97;27.65;;;;;;;;;;5014850;28;20545;-81
2022/01/22 00:51:30;;;;;;;47.85;22.67;;;;;;;;;;5014865;28;20161;-81
2022/01/22 00:53:57;;;;;;;71.03;32.78;;;;;;;;;;5054556;28;20515;-79
2022/01/22 00:56:25;;;;;;;137.52;65.22;;;;;;;;;;5056351;28;20039;-80
2022/01/22 00:58:53;;;;;;;101.65;46.88;;;;;;;;;;5056169;28;20055;-80
2022/01/22 01:01:20;;;;;;;80.57;36.13;;;;;;;;;;5056041;28;20056;-80
2022/01/22 01:03:48;;;;;;;80.75;35.67;;;;;;;;;;5056174;28;20100;-80
2022/01/22 01:06:15;;;;;;;66.80;28.48;;;;;;;;;;5055986;28;20025;-80
2022/01/22 01:08:43;;;;;;;132.82;58.53;;;;;;;;;;5038432;28;20021;-80
2022/01/22 01:11:13;;;;;;;129.48;57.50;;;;;;;;;;5055819;28;20013;-80
2022/01/22 01:13:45;;;;;;;121.32;53.80;;;;;;;;;;5055540;28;20385;-80
2022/01/22 01:33:03;;;;;;;101.20;45.47;;;;;;;;;;5014564;28;20044;-80
2022/01/22 01:35:37;;;;;;;78.50;34.63;;;;;;;;;;5014520;28;20059;-80
2022/01/22 01:38:06;;;;;;;67.07;28.65;;;;;;;;;;5014979;28;20108;-80
2022/01/22 01:40:36;;;;;;;69.85;30.80;;;;;;;;;;4998162;28;20038;-80
2022/01/22 01:43:20;;;;;;;84.68;36.83;;;;;;;;;;5015962;28;20030;-80
2022/01/22 01:45:49;;;;;;;80.00;35.40;;;;;;;;;;5016761;28;20128;-79
2022/01/22 01:48:22;;;;;;;73.80;30.80;;;;;;;;;;4998191;28;20030;-81
2022/01/22 01:50:52;;;;;;;94.75;42.47;;;;;;;;;;5014715;28;20037;-81
2022/01/22 01:57:27;;;;;;;47.22;17.08;;;;;;;;;;4955817;29;20051;-82
2022/01/22 01:58:56;;;;;;;31.48;11.07;;;;;;;;;;4974835;28;20023;-83
2022/01/22 02:01:24;;;;;;;25.00;7.63;;;;;;;;;;4974772;28;20371;-82
2022/01/22 02:03:51;;;;;;;17.73;7.00;;;;;;;;;;4974784;28;20035;-81
2022/01/22 02:06:19;;;;;;;19.52;9.15;;;;;;;;;;4981166;28;20030;-82
2022/01/22 02:08:47;;;;;;;15.27;5.85;;;;;;;;;;4994450;28;20061;-82
2022/01/22 02:11:17;;;;;;;19.83;6.35;;;;;;;;;;4994198;28;20030;-81
2022/01/22 02:24:51;;;;;;;51.35;19.45;;;;;;;;;;4996502;28;20052;-81
2022/01/22 02:27:23;;;;;;;48.95;17.17;;;;;;;;;;4998181;28;20113;-80
2022/01/22 02:29:58;;;;;;;54.42;19.10;;;;;;;;;;4981937;28;20037;-80
2022/01/22 02:35:24;;;;;;;35.28;14.63;;;;;;;;;;5060461;28;20047;-80
2022/01/22 02:37:58;;;;;;;47.63;17.95;;;;;;;;;;5080053;28;20017;-80
2022/01/22 02:40:30;;;;;;;59.53;22.52;;;;;;;;;;5080519;28;20025;-80
2022/01/22 02:43:01;;;;;;;59.88;22.25;;;;;;;;;;5080374;28;20044;-78
2022/01/22 02:45:31;;;;;;;67.00;24.65;;;;;;;;;;5079138;28;20056;-79
2022/01/22 02:48:01;;;;;;;59.22;24.67;;;;;;;;;;5058194;28;20032;-79
2022/01/22 02:50:28;;;;;;;57.95;24.73;;;;;;;;;;5071152;28;20078;-79
2022/01/22 02:52:56;;;;;;;54.95;23.30;;;;;;;;;;5060351;28;20017;-79
2022/01/22 02:55:23;;;;;;;53.53;23.73;;;;;;;;;;5060164;28;20086;-78
2022/01/22 02:57:51;;;;;;;59.58;23.85;;;;;;;;;;5041970;28;20445;-78
2022/01/22 03:00:22;;;;;;;52.92;23.27;;;;;;;;;;5059402;28;20094;-78
2022/01/22 03:02:51;;;;;;;58.22;22.25;;;;;;;;;;5059557;28;20025;-77
2022/01/22 03:05:18;;;;;;;52.35;21.70;;;;;;;;;;5041617;28;20314;-77
2022/01/22 03:07:54;;;;;;;55.50;22.58;;;;;;;;;;5059269;28;20029;-78
2022/01/22 03:10:25;;;;;;;69.40;27.25;;;;;;;;;;5041245;28;20024;-76
2022/01/22 03:13:11;;;;;;;162.65;59.08;;;;;;;;;;5059170;28;20032;-77
2022/01/22 03:16:02;;;;;;;174.35;66.25;;;;;;;;;;5058924;28;20025;-76
2022/01/22 03:18:50;;;;;;;144.68;57.75;;;;;;;;;;5058680;28;20318;-76
2022/01/22 03:29:31;;;;;;;104.47;43.67;;;;;;;;;;5058952;28;20106;-76
2022/01/22 03:31:59;;;;;;;100.20;41.45;;;;;;;;;;5058585;28;20032;-75
2022/01/22 03:34:29;;;;;;;88.57;38.85;;;;;;;;;;5058231;28;20028;-75
2022/01/22 03:36:56;;;;;;;82.25;35.33;;;;;;;;;;5058068;28;20090;-75
2022/01/22 03:39:24;;;;;;;88.32;38.67;;;;;;;;;;5058293;28;20467;-75
2022/01/22 03:41:54;;;;;;;88.70;38.83;;;;;;;;;;5058595;28;20029;-75
2022/01/22 03:44:22;;;;;;;97.80;40.28;;;;;;;;;;5040712;28;20395;-75
2022/01/22 03:46:49;;;;;;;75.68;34.47;;;;;;;;;;5058616;28;20047;-75
2022/01/22 03:49:17;;;;;;;82.50;35.72;;;;;;;;;;5058066;28;20375;-75
2022/01/22 03:51:45;;;;;;;75.25;34.60;;;;;;;;;;5058157;28;20028;-75
2022/01/22 03:54:12;;;;;;;83.55;33.63;;;;;;;;;;5058179;28;20029;-75
2022/01/22 03:56:44;;;;;;;73.80;32.55;;;;;;;;;;5057911;28;20025;-75
2022/01/22 03:59:12;;;;;;;65.13;31.40;;;;;;;;;;5057878;28;20032;-76
2022/01/22 04:04:36;;;;;;;83.35;37.33;;;;;;;;;;5058399;28;20040;-76
2022/01/22 04:09:57;;;;;;;72.00;31.42;;;;;;;;;;5057590;28;20078;-76
2022/01/22 04:12:37;;;;;;;76.25;29.45;;;;;;;;;;5057411;28;20024;-77
2022/01/22 04:15:06;;;;;;;78.68;31.48;;;;;;;;;;5062546;28;20013;-75
2022/01/22 04:25:36;;;;;;;86.97;33.13;;;;;;;;;;5057914;28;20155;-78
2022/01/22 04:28:02;;;;;;;90.25;34.20;;;;;;;;;;5056736;28;20326;-76
2022/01/22 04:30:30;;;;;;;88.13;31.23;;;;;;;;;;5040704;28;20021;-76
2022/01/22 04:33:00;;;;;;;76.25;30.00;;;;;;;;;;5038957;28;20159;-76
2022/01/22 04:35:28;;;;;;;74.80;27.67;;;;;;;;;;5039925;28;20059;-82
2022/01/22 04:37:55;;;;;;;69.78;28.65;;;;;;;;;;5040707;28;20033;-77
2022/01/22 04:40:26;;;;;;;70.30;29.63;;;;;;;;;;5057462;28;20029;-76
2022/01/22 04:42:54;;;;;;;82.13;31.20;;;;;;;;;;5057393;28;20021;-76
2022/01/22 04:45:39;;;;;;;67.15;29.60;;;;;;;;;;5038971;28;20024;-74
2022/01/22 04:56:25;;;;;;;65.35;27.02;;;;;;;;;;5057835;28;20459;-78
2022/01/22 04:58:53;;;;;;;58.47;24.25;;;;;;;;;;5057713;28;20032;-79
2022/01/22 05:01:20;;;;;;;56.30;19.92;;;;;;;;;;5039307;28;20070;-78
2022/01/22 05:03:48;;;;;;;45.88;17.67;;;;;;;;;;5039772;28;20025;-78
2022/01/22 05:06:18;;;;;;;48.38;18.17;;;;;;;;;;5056478;28;20025;-75
2022/01/22 05:08:46;;;;;;;47.42;17.73;;;;;;;;;;5057591;28;20029;-76
2022/01/22 05:11:14;;;;;;;50.20;19.23;;;;;;;;;;5057615;28;20017;-77
2022/01/22 05:13:42;;;;;;;48.10;20.42;;;;;;;;;;5038507;28;20021;-77
2022/01/22 05:16:09;;;;;;;54.30;20.80;;;;;;;;;;5057432;28;20079;-77
2022/01/22 05:18:44;;;;;;;46.65;18.05;;;;;;;;;;5039746;28;20029;-77
2022/01/22 05:21:15;;;;;;;49.88;19.13;;;;;;;;;;5055928;28;20078;-77
2022/01/22 05:23:44;;;;;;;48.08;15.75;;;;;;;;;;5038618;28;20033;-77
2022/01/22 05:26:30;;;;;;;30.75;12.05;;;;;;;;;;5055857;28;20056;-77
2022/01/22 05:29:15;;;;;;;31.40;9.23;;;;;;;;;;5055916;28;20035;-74
2022/01/22 05:37:04;;;;;;;17.98;6.65;;;;;;;;;;5055574;28;20055;-74
2022/01/22 05:39:33;;;;;;;19.95;4.28;;;;;;;;;;5037698;28;20025;-74
2022/01/22 05:42:02;;;;;;;8.88;2.97;;;;;;;;;;5055784;28;20032;-74
2022/01/22 05:44:33;;;;;;;11.73;4.22;;;;;;;;;;5037573;28;20437;-73
2022/01/22 05:47:05;;;;;;;9.27;3.70;;;;;;;;;;5037877;28;20021;-75
2022/01/22 05:49:40;;;;;;;15.70;4.88;;;;;;;;;;5055977;28;20025;-75
2022/01/22 05:52:10;;;;;;;12.60;4.05;;;;;;;;;;5056552;28;20024;-76
2022/01/22 05:59:57;;;;;;;8.88;2.20;;;;;;;;;;5060318;28;20402;-76
2022/01/22 06:02:25;;;;;;;13.05;3.83;;;;;;;;;;5060124;28;20029;-75
2022/01/22 06:04:53;;;;;;;18.65;7.80;;;;;;;;;;5045085;28;20044;-75
2022/01/22 06:07:20;;;;;;;36.25;16.35;;;;;;;;;;5041867;28;20028;-76
2022/01/22 06:10:05;;;;;;;6.60;1.80;;;;;;;;;;5059589;28;20078;-78
2022/01/22 06:12:46;;;;;;;8.02;2.20;;;;;;;;;;5059627;28;20021;-78
2022/01/22 06:15:14;;;;;;;13.20;2.00;;;;;;;;;;5041479;28;20120;-77
2022/01/22 06:17:41;;;;;;;10.65;2.60;;;;;;;;;;5042299;28;20438;-76
2022/01/22 06:20:13;;;;;;;9.80;3.80;;;;;;;;;;5060138;28;20047;-79
2022/01/22 06:22:43;;;;;;;38.05;12.38;;;;;;;;;;5043796;28;20021;-78
2022/01/22 06:25:10;;;;;;;23.70;5.57;;;;;;;;;;5048699;28;20045;-76
2022/01/22 06:27:36;;;;;;;32.00;15.02;;;;;;;;;;5059432;28;20021;-78
2022/01/22 06:30:04;;;;;;;56.05;27.10;;;;;;;;;;5060409;28;20100;-77
2022/01/22 06:32:32;;;;;;;77.25;43.05;;;;;;;;;;5061153;28;20024;-79
2022/01/22 06:34:59;;;;;;;38.88;20.70;;;;;;;;;;5041418;28;20090;-81
2022/01/22 06:37:27;;;;;;;57.88;31.02;;;;;;;;;;5041266;28;20057;-81
2022/01/22 06:42:36;;;;;;;58.10;27.90;;;;;;;;;;5060429;28;20029;-82
2022/01/22 06:45:05;;;;;;;73.80;37.97;;;;;;;;;;5060682;28;20049;-82
2022/01/22 06:47:33;;;;;;;100.53;49.40;;;;;;;;;;5059857;28;20083;-80
2022/01/22 06:50:00;;;;;;;53.65;29.98;;;;;;;;;;5041722;28;20025;-80
2022/01/22 06:52:29;;;;;;;24.60;8.60;;;;;;;;;;5042251;28;20053;-79
2022/01/22 06:54:57;;;;;;;18.10;8.68;;;;;;;;;;5059143;28;20086;-80
2022/01/22 06:57:24;;;;;;;26.95;11.13;;;;;;;;;;5059238;28;20075;-79
2022/01/22 06:59:52;;;;;;;25.75;9.23;;;;;;;;;;5058832;28;20025;-80
2022/01/22 07:02:20;;;;;;;14.30;5.70;;;;;;;;;;5040431;28;20345;-83
2022/01/22 07:04:48;;;;;;;27.40;8.57;;;;;;;;;;5058774;28;20049;-83
2022/01/22 07:07:15;;;;;;;22.20;9.52;;;;;;;;;;5059014;28;20048;-83
2022/01/22 07:09:46;;;;;;;30.48;9.95;;;;;;;;;;5058159;28;20032;-83
2022/01/22 07:12:13;;;;;;;31.02;10.88;;;;;;;;;;5042489;28;20056;-79
2022/01/22 07:14:41;;;;;;;24.75;9.65;;;;;;;;;;5043483;28;20017;-75
2022/01/22 07:17:09;;;;;;;23.95;9.15;;;;;;;;;;5059564;28;20032;-81
2022/01/22 07:19:41;;;;;;;25.45;8.00;;;;;;;;;;5040445;28;20094;-82
2022/01/22 07:22:31;;;;;;;20.58;7.93;;;;;;;;;;5058212;28;20035;-80
2022/01/22 07:24:55;;;;;;;26.42;7.78;;;;;;;;;;5060760;28;20051;-82
2022/01/22 07:27:22;;;;;;;25.65;8.70;;;;;;;;;;5041028;28;20320;-81
2022/01/22 07:29:49;;;;;;;26.67;9.48;;;;;;;;;;5059354;28;20031;-75
2022/01/22 07:32:27;;;;;;;36.58;11.40;;;;;;;;;;5059217;28;20021;-80
2022/01/22 07:34:55;;;;;;;30.15;12.68;;;;;;;;;;5041715;28;20113;-75
2022/01/22 07:37:22;;;;;;;33.97;13.23;;;;;;;;;;5058388;28;20036;-77
2022/01/22 07:39:50;;;;;;;41.33;14.07;;;;;;;;;;5057995;28;20041;-75
2022/01/22 07:42:18;;;;;;;33.25;13.48;;;;;;;;;;5040987;28;20021;-74
2022/01/22 07:44:46;;;;;;;32.10;12.48;;;;;;;;;;5058176;28;20425;-78
2022/01/22 07:47:13;;;;;;;31.00;10.43;;;;;;;;;;5057852;28;20104;-74
2022/01/22 07:49:41;;;;;;;31.40;12.30;;;;;;;;;;5057922;28;20483;-75
2022/01/22 07:52:09;;;;;;;33.30;12.27;;;;;;;;;;5058106;28;20028;-76
2022/01/22 07:54:36;;;;;;;34.28;12.18;;;;;;;;;;5057893;28;20469;-75
2022/01/22 07:57:04;;;;;;;29.50;12.25;;;;;;;;;;5057495;28;20104;-75
2022/01/22 07:59:33;;;;;;;36.80;13.73;;;;;;;;;;5039818;28;20025;-74
2022/01/22 08:02:04;;;;;;;36.60;14.95;;;;;;;;;;5039721;28;20025;-79
2022/01/22 08:04:31;;;;;;;36.80;15.13;;;;;;;;;;5062761;28;20021;-74
2022/01/22 08:07:02;;;;;;;33.42;14.63;;;;;;;;;;5057145;28;20033;-76
2022/01/22 08:09:30;;;;;;;32.20;14.75;;;;;;;;;;5039651;28;20043;-74
2022/01/22 08:11:59;;;;;;;37.22;15.27;;;;;;;;;;5057753;28;20097;-77
2022/01/22 08:14:26;;;;;;;38.05;15.80;;;;;;;;;;5057651;28;20037;-77
2022/01/22 08:16:54;;;;;;;32.80;15.80;;;;;;;;;;5057344;28;20044;-77
2022/01/22 08:19:23;;;;;;;30.17;14.02;;;;;;;;;;5057547;28;20033;-77
2022/01/22 08:21:51;;;;;;;36.75;15.80;;;;;;;;;;5039801;28;20028;-75
2022/01/22 08:24:22;;;;;;;33.72;15.40;;;;;;;;;;5039624;28;20087;-78
2022/01/22 08:27:04;;;;;;;34.92;15.80;;;;;;;;;;5038930;28;20059;-75
2022/01/22 08:29:31;;;;;;;45.58;22.00;;;;;;;;;;5056356;28;20052;-77
2022/01/22 08:37:24;;;;;;;37.20;16.42;;;;;;;;;;5076366;28;20034;-80
2022/01/22 08:39:52;;;;;;;37.20;16.08;;;;;;;;;;5058300;28;20088;-77
2022/01/22 08:42:20;;;;;;;36.67;17.10;;;;;;;;;;5058658;28;20055;-78
2022/01/22 08:44:47;;;;;;;47.05;17.23;;;;;;;;;;5060210;28;20097;-74
2022/01/22 08:47:15;;;;;;;39.95;16.85;;;;;;;;;;5058876;28;20025;-81
2022/01/22 08:49:43;;;;;;;40.65;19.60;;;;;;;;;;5058856;28;20027;-76
2022/01/22 08:52:13;;;;;;;45.25;21.20;;;;;;;;;;5076668;28;20028;-78
2022/01/22 08:54:41;;;;;;;40.00;20.67;;;;;;;;;;5058661;28;20023;-76
2022/01/22 08:57:09;;;;;;;49.95;21.90;;;;;;;;;;5058503;28;20551;-75
2022/01/22 08:59:37;;;;;;;48.60;21.42;;;;;;;;;;5076502;28;20559;-76
2022/01/22 09:02:06;;;;;;;45.17;20.40;;;;;;;;;;5076578;28;20329;-74
2022/01/22 09:04:34;;;;;;;47.38;21.90;;;;;;;;;;5076550;28;20036;-76
2022/01/22 09:07:01;;;;;;;49.13;21.80;;;;;;;;;;5076916;28;20031;-76
2022/01/22 09:09:29;;;;;;;50.35;21.73;;;;;;;;;;5076622;28;20130;-77
2022/01/22 09:11:57;;;;;;;43.58;20.13;;;;;;;;;;5076575;28;20074;-77
2022/01/22 09:14:25;;;;;;;42.95;18.23;;;;;;;;;;5058134;28;20020;-74
2022/01/22 09:16:57;;;;;;;48.83;19.50;;;;;;;;;;5058548;28;20026;-76
2022/01/22 09:19:33;;;;;;;48.92;21.77;;;;;;;;;;5076282;28;20024;-77
2022/01/22 09:22:01;;;;;;;48.25;23.13;;;;;;;;;;5076095;28;20024;-77
2022/01/22 09:24:28;;;;;;;55.00;25.52;;;;;;;;;;5056578;28;20063;-76
2022/01/22 09:27:01;;;;;;;62.15;27.92;;;;;;;;;;5038052;28;20025;-77
2022/01/22 09:29:29;;;;;;;54.67;23.25;;;;;;;;;;5055655;28;20025;-75
2022/01/22 09:31:56;;;;;;;58.08;27.13;;;;;;;;;;5055560;28;20032;-80
2022/01/22 09:34:24;;;;;;;54.08;25.02;;;;;;;;;;5055197;28;20320;-79
2022/01/22 09:36:58;;;;;;;54.70;25.42;;;;;;;;;;5055716;28;20096;-75
2022/01/22 09:39:26;;;;;;;58.47;24.60;;;;;;;;;;5037811;28;20116;-76
2022/01/22 09:41:53;;;;;;;49.58;23.13;;;;;;;;;;5056219;28;20029;-81
2022/01/22 09:44:21;;;;;;;51.55;22.50;;;;;;;;;;5055466;28;20021;-80
2022/01/22 09:46:51;;;;;;;55.55;22.77;;;;;;;;;;5037793;28;20029;-73
2022/01/22 09:49:18;;;;;;;54.63;22.52;;;;;;;;;;5055358;28;20041;-77
2022/01/22 09:51:46;;;;;;;47.63;22.52;;;;;;;;;;5037652;28;20022;-73
2022/01/22 09:54:15;;;;;;;44.28;20.73;;;;;;;;;;5055292;28;20025;-74
2022/01/22 09:56:45;;;;;;;54.97;21.30;;;;;;;;;;5037347;28;20071;-74
2022/01/22 09:59:13;;;;;;;44.88;19.00;;;;;;;;;;5037933;28;20552;-75
2022/01/22 10:01:41;;;;;;;46.65;18.63;;;;;;;;;;5037710;28;20033;-74
2022/01/22 10:04:09;;;;;;;42.05;19.33;;;;;;;;;;5055612;28;20029;-73
2022/01/22 10:07:00;;;;;;;43.72;20.27;;;;;;;;;;5055364;28;20025;-75
2022/01/22 10:09:34;;;;;;;43.00;19.08;;;;;;;;;;5037953;28;20489;-74
2022/01/22 10:12:16;;;;;;;44.25;20.23;;;;;;;;;;5037960;28;20032;-71
2022/01/22 10:15:02;;;;;;;43.15;20.83;;;;;;;;;;5037837;28;20047;-73
2022/01/22 10:17:47;;;;;;;44.53;20.02;;;;;;;;;;5037536;28;20029;-75
2022/01/22 10:20:28;;;;;;;46.88;19.10;;;;;;;;;;5055121;28;20426;-78
2022/01/22 10:23:01;;;;;;;43.63;17.60;;;;;;;;;;5037633;28;20140;-72
2022/01/22 10:25:43;;;;;;;47.42;16.60;;;;;;;;;;5036758;28;20048;-77
2022/01/22 10:28:15;;;;;;;46.25;17.02;;;;;;;;;;5054915;28;20048;-73
2022/01/22 10:30:44;;;;;;;41.45;18.42;;;;;;;;;;5054879;28;20101;-73
2022/01/22 10:33:27;;;;;;;49.60;18.85;;;;;;;;;;5054897;28;20027;-73
2022/01/22 10:36:16;;;;;;;45.72;19.60;;;;;;;;;;5054958;28;20086;-74
2022/01/22 10:38:50;;;;;;;43.95;18.48;;;;;;;;;;5037326;28;20041;-80
2022/01/22 10:41:20;;;;;;;36.10;16.55;;;;;;;;;;5055559;28;20047;-73
2022/01/22 10:43:55;;;;;;;43.10;18.05;;;;;;;;;;5054983;28;20029;-77
2022/01/22 10:46:41;;;;;;;32.70;16.25;;;;;;;;;;5057862;28;20418;-73
2022/01/22 10:49:12;;;;;;;37.33;17.73;;;;;;;;;;5059011;28;20021;-78
2022/01/22 10:51:56;;;;;;;46.85;19.40;;;;;;;;;;5058608;28;20072;-76
2022/01/22 10:54:24;;;;;;;48.65;19.38;;;;;;;;;;5040787;28;20027;-76
2022/01/22 10:56:53;;;;;;;56.35;22.65;;;;;;;;;;5041167;28;20396;-75
2022/01/22 10:59:21;;;;;;;45.33;20.30;;;;;;;;;;5058572;28;20025;-74
2022/01/22 11:01:55;;;;;;;47.90;20.25;;;;;;;;;;4999936;28;20037;-79
2022/01/22 11:04:26;;;;;;;47.40;20.77;;;;;;;;;;5000364;28;20092;-75
2022/01/22 11:07:03;;;;;;;42.97;19.95;;;;;;;;;;5017686;28;20088;-74
2022/01/22 11:09:31;;;;;;;45.15;21.30;;;;;;;;;;5016680;28;20061;-77
2022/01/22 11:12:00;;;;;;;50.13;22.45;;;;;;;;;;5016808;28;20037;-76
2022/01/22 11:14:28;;;;;;;61.63;27.58;;;;;;;;;;5016478;28;20418;-81
2022/01/22 11:16:55;;;;;;;56.10;24.65;;;;;;;;;;5000182;28;20038;-76
2022/01/22 11:19:30;;;;;;;56.30;24.60;;;;;;;;;;5000770;28;20116;-76
2022/01/22 11:22:01;;;;;;;69.75;28.08;;;;;;;;;;5000790;28;20087;-75
2022/01/22 11:24:29;;;;;;;64.28;26.30;;;;;;;;;;5001320;28;20092;-76
2022/01/22 11:26:58;;;;;;;55.15;25.65;;;;;;;;;;5036575;28;20106;-76
2022/01/22 11:29:44;;;;;;;55.97;25.42;;;;;;;;;;5036096;28;20033;-75
2022/01/22 11:32:12;;;;;;;52.45;25.38;;;;;;;;;;5036103;28;20049;-77
2022/01/22 11:34:44;;;;;;;54.13;26.58;;;;;;;;;;5020397;28;20462;-76
2022/01/22 11:37:39;;;;;;;70.65;32.00;;;;;;;;;;5037393;28;20041;-76
2022/01/22 11:40:19;;;;;;;93.28;43.17;;;;;;;;;;5019845;28;20434;-77
2022/01/22 11:43:08;;;;;;;73.57;33.67;;;;;;;;;;5036894;28;20069;-75
2022/01/22 11:45:46;;;;;;;76.97;36.92;;;;;;;;;;5020167;28;20053;-80
2022/01/22 11:48:25;;;;;;;68.03;28.65;;;;;;;;;;5036484;28;20029;-77
2022/01/22 11:51:23;;;;;;;54.92;24.42;;;;;;;;;;5029674;28;20005;-80
2022/01/22 11:53:55;;;;;;;55.28;26.48;;;;;;;;;;5020725;28;20034;-77
2022/01/22 11:56:25;;;;;;;61.72;27.10;;;;;;;;;;5000314;28;20021;-76
2022/01/22 11:59:04;;;;;;;72.55;35.05;;;;;;;;;;5001262;28;20034;-78
2022/01/22 12:01:51;;;;;;;68.97;31.65;;;;;;;;;;5018238;28;20030;-77
2022/01/22 12:04:21;;;;;;;53.60;24.50;;;;;;;;;;4998498;28;20067;-80
2022/01/22 12:07:08;;;;;;;65.05;28.02;;;;;;;;;;4997782;28;20034;-77
2022/01/22 12:10:04;;;;;;;78.32;34.33;;;;;;;;;;4997689;28;20442;-79
2022/01/22 12:15:46;;;;;;;71.18;32.97;;;;;;;;;;4997635;28;20037;-80
2022/01/22 12:18:16;;;;;;;85.20;40.03;;;;;;;;;;4981640;28;20030;-77
2022/01/22 12:23:17;;;;;;;99.32;46.33;;;;;;;;;;5001094;28;20023;-76
2022/01/22 12:25:51;;;;;;;101.18;46.25;;;;;;;;;;4992359;28;20153;-77
2022/01/22 12:28:39;;;;;;;97.80;46.97;;;;;;;;;;5011414;28;20068;-76
2022/01/22 12:31:08;;;;;;;93.10;43.20;;;;;;;;;;5028891;28;20037;-75
2022/01/22 12:33:37;;;;;;;118.75;56.38;;;;;;;;;;5014959;28;20068;-77
2022/01/22 12:36:17;;;;;;;118.05;60.67;;;;;;;;;;5031405;28;20046;-75
2022/01/22 12:38:58;;;;;;;117.22;57.08;;;;;;;;;;5029905;28;20038;-75
2022/01/22 12:44:36;;;;;;;253.77;107.43;;;;;;;;;;5051241;28;20033;-74
2022/01/22 12:47:14;;;;;;;226.55;96.78;;;;;;;;;;5063499;28;20417;-77
2022/01/22 12:49:43;;;;;;;154.35;70.57;;;;;;;;;;5043469;28;20021;-76
2022/01/22 12:52:13;;;;;;;203.75;91.45;;;;;;;;;;5060491;28;20021;-74
2022/01/22 12:54:44;;;;;;;226.32;105.43;;;;;;;;;;5061785;28;20021;-75
2022/01/22 12:57:16;;;;;;;253.43;115.07;;;;;;;;;;5060354;28;20037;-75
2022/01/22 13:00:05;;;;;;;312.02;152.30;;;;;;;;;;5046835;28;20112;-76
2022/01/22 13:02:44;;;;;;;223.65;106.90;;;;;;;;;;5043125;28;20028;-74
2022/01/22 13:05:13;;;;;;;239.35;111.70;;;;;;;;;;5059737;28;20029;-76
2022/01/22 13:07:44;;;;;;;324.15;158.90;;;;;;;;;;5055234;28;20060;-77
2022/01/22 13:10:12;;;;;;;280.60;138.13;;;;;;;;;;5039253;28;20104;-75
2022/01/22 13:12:44;;;;;;;244.43;112.63;;;;;;;;;;5062420;28;20033;-76
2022/01/22 13:15:15;;;;;;;317.15;147.07;;;;;;;;;;5077691;28;20027;-74
2022/01/22 13:17:52;;;;;;;289.85;138.15;;;;;;;;;;5059388;28;20028;-74
2022/01/22 13:20:24;;;;;;;223.13;107.82;;;;;;;;;;5059291;28;20039;-75
2022/01/22 13:22:52;;;;;;;244.43;121.70;;;;;;;;;;5078142;28;20062;-74
2022/01/22 13:25:19;;;;;;;308.08;144.75;;;;;;;;;;5059142;28;20084;-73
2022/01/22 13:28:02;;;;;;;363.80;152.02;;;;;;;;;;5077311;28;20326;-74
2022/01/22 13:30:36;;;;;;;335.30;145.65;;;;;;;;;;5058826;28;20528;-75
2022/01/22 13:33:20;;;;;;;267.45;126.28;;;;;;;;;;5076400;28;20020;-76
2022/01/22 13:50:07;;;;;;;307.88;142.18;;;;;;;;;;4976844;28;20124;-76
2022/01/22 13:52:40;;;;;;;309.10;142.13;;;;;;;;;;4979118;28;20038;-78
2022/01/22 13:57:44;;;;;;;322.60;148.02;;;;;;;;;;5443207;22;20331;-76
2022/01/22 14:00:16;;;;;;;286.20;133.93;;;;;;;;;;5056089;28;20032;-76
2022/01/22 14:03:20;;;;;;;276.42;127.88;;;;;;;;;;5056038;28;20056;-76
2022/01/22 14:05:54;;;;;;;265.02;119.50;;;;;;;;;;5055720;28;20056;-77
2022/01/22 14:08:34;;;;;;;242.32;110.32;;;;;;;;;;5038638;28;20021;-77
2022/01/22 14:11:13;;;;;;;235.85;105.05;;;;;;;;;;5056166;28;20058;-77
2022/01/22 14:13:41;;;;;;;343.55;152.40;;;;;;;;;;5055972;28;20021;-77
2022/01/22 14:16:15;;;;;;;458.63;206.60;;;;;;;;;;5037882;28;20075;-78
2022/01/22 14:18:43;;;;;;;262.60;114.47;;;;;;;;;;5055776;28;20028;-76
2022/01/22 14:21:14;;;;;;;187.80;89.38;;;;;;;;;;5059320;28;20036;-74
2022/01/22 14:23:42;;;;;;;176.70;78.25;;;;;;;;;;5059147;28;20021;-74
2022/01/22 14:26:23;;;;;;;202.90;95.70;;;;;;;;;;5059287;28;20052;-76
2022/01/22 14:28:54;;;;;;;212.23;101.10;;;;;;;;;;5059421;28;20103;-79
2022/01/22 14:31:30;;;;;;;248.63;109.20;;;;;;;;;;5059201;28;20014;-79
2022/01/22 14:34:02;;;;;;;232.85;104.57;;;;;;;;;;5041449;28;20017;-79
2022/01/22 14:36:40;;;;;;;237.32;99.82;;;;;;;;;;5041027;28;20084;-78
2022/01/22 14:43:47;;;;;;;201.35;91.70;;;;;;;;;;5041195;28;20059;-78
2022/01/22 14:44:58;;;;;;;263.95;112.65;;;;;;;;;;5059358;28;20044;-79
2022/01/22 14:47:26;;;;;;;307.70;131.82;;;;;;;;;;5059015;28;20049;-78
2022/01/22 14:50:06;;;;;;;307.42;134.40;;;;;;;;;;5041139;28;20421;-79
2022/01/22 14:52:33;;;;;;;315.70;143.18;;;;;;;;;;5041864;28;20432;-77
2022/01/22 14:55:03;;;;;;;264.10;118.70;;;;;;;;;;5059541;28;20027;-79
2022/01/22 14:57:31;;;;;;;278.63;121.03;;;;;;;;;;5059077;28;20049;-80
2022/01/22 15:00:05;;;;;;;298.85;129.45;;;;;;;;;;5041154;28;20032;-79
2022/01/22 15:02:33;;;;;;;300.90;129.90;;;;;;;;;;5058596;28;20044;-80
2022/01/22 15:05:01;;;;;;;260.95;118.18;;;;;;;;;;5058950;28;20035;-79
2022/01/22 15:07:28;;;;;;;260.67;111.22;;;;;;;;;;5058635;28;20025;-79
2022/01/22 15:09:56;;;;;;;230.95;105.57;;;;;;;;;;5041065;28;20021;-79
2022/01/22 15:12:24;;;;;;;246.15;110.40;;;;;;;;;;5040927;28;20108;-80
2022/01/22 15:14:53;;;;;;;246.70;111.82;;;;;;;;;;5041043;28;20020;-80
2022/01/22 15:19:49;;;;;;;236.35;110.68;;;;;;;;;;5058463;28;20033;-80
2022/01/22 15:22:17;;;;;;;222.68;101.93;;;;;;;;;;5040978;28;20048;-80
2022/01/22 15:24:46;;;;;;;228.70;105.20;;;;;;;;;;5041046;28;20418;-80
2022/01/22 15:27:15;;;;;;;229.27;101.70;;;;;;;;;;5059031;28;20036;-79
2022/01/22 15:29:55;;;;;;;221.90;103.28;;;;;;;;;;5044515;28;20018;-79
2022/01/22 15:32:40;;;;;;;238.55;110.65;;;;;;;;;;5057476;28;20040;-79
2022/01/22 15:35:26;;;;;;;341.40;147.27;;;;;;;;;;5059558;28;20017;-86
2022/01/22 15:40:56;;;;;;;319.88;135.07;;;;;;;;;;5061315;28;20024;-84
2022/01/22 15:43:24;;;;;;;240.35;110.15;;;;;;;;;;5040792;28;20017;-83
2022/01/22 15:45:52;;;;;;;218.65;100.40;;;;;;;;;;5040986;28;20075;-83
2022/01/22 15:48:20;;;;;;;204.32;91.75;;;;;;;;;;5040283;28;20067;-83
2022/01/22 15:50:48;;;;;;;190.10;88.63;;;;;;;;;;5058442;28;20070;-84
2022/01/22 15:53:16;;;;;;;203.02;89.07;;;;;;;;;;5062899;28;20027;-84
2022/01/22 15:55:45;;;;;;;202.57;92.00;;;;;;;;;;5062979;28;20107;-84
2022/01/22 15:58:12;;;;;;;201.82;95.28;;;;;;;;;;5064876;28;20037;-83
2022/01/22 16:00:41;;;;;;;249.07;104.35;;;;;;;;;;5045402;28;20056;-82
2022/01/22 16:03:10;;;;;;;257.23;106.82;;;;;;;;;;5044720;28;20025;-84
2022/01/22 16:05:39;;;;;;;216.63;92.80;;;;;;;;;;5040310;28;20037;-82
2022/01/22 16:08:06;;;;;;;229.80;97.82;;;;;;;;;;5040404;28;20112;-83
2022/01/22 16:10:34;;;;;;;292.50;123.28;;;;;;;;;;5057614;28;20021;-83
2022/01/22 16:13:04;;;;;;;297.45;129.27;;;;;;;;;;5041368;28;20024;-83
2022/01/22 16:15:32;;;;;;;277.20;122.22;;;;;;;;;;5042158;28;20114;-84
2022/01/22 16:17:59;;;;;;;225.40;104.70;;;;;;;;;;5044181;28;20052;-83
2022/01/22 16:20:28;;;;;;;246.18;111.65;;;;;;;;;;5061725;28;20103;-84
2022/01/22 16:22:55;;;;;;;209.80;97.88;;;;;;;;;;5057795;28;20017;-84
2022/01/22 16:25:23;;;;;;;222.65;99.57;;;;;;;;;;5057464;28;20287;-78
2022/01/22 16:27:51;;;;;;;215.07;100.75;;;;;;;;;;5057583;28;20322;-81
2022/01/22 16:30:18;;;;;;;227.05;103.78;;;;;;;;;;5039531;28;20032;-80
2022/01/22 16:32:47;;;;;;;226.40;102.78;;;;;;;;;;5057569;28;20021;-81